sensor_id;sensor_type;location;lat;lon;timestamp;noise_LAeq;noise_LA_min;noise_LA_max;noise_LA01;noise_LA95
17594;Laerm;8916;47.086;15.920;2022-11-15T00:02:44;49.12;47.95;50.24;;
17594;Laerm;8916;47.086;15.920;2022-11-15T00:05:34;49.13;48.07;50.30;;
17594;Laerm;8916;47.086;15.920;2022-11-15T00:08:21;49.13;47.95;50.31;;
17594;Laerm;8916;47.086;15.920;2022-11-15T00:11:10;49.12;48.03;50.49;;
17594;Laerm;8916;47.086;15.920;2022-11-15T00:13:58;49.13;47.91;50.31;;
17594;Laerm;8916;47.086;15.920;2022-11-15T00:16:49;49.13;48.08;50.41;;
17594;Laerm;8916;47.086;15.920;2022-11-15T00:19:36;49.13;47.96;50.33;;
17594;Laerm;8916;47.086;15.920;2022-11-15T00:22:23;49.13;48.02;50.15;;
17594;Laerm;8916;47.086;15.920;2022-11-15T00:25:11;49.12;47.90;50.36;;
17594;Laerm;8916;47.086;15.920;2022-11-15T00:27:59;49.11;48.07;50.29;;
17594;Laerm;8916;47.086;15.920;2022-11-15T00:30:48;49.12;47.81;50.58;;
17594;Laerm;8916;47.086;15.920;2022-11-15T00:33:39;49.12;47.98;50.47;;
17594;Laerm;8916;47.086;15.920;2022-11-15T00:36:32;49.12;47.86;50.22;;
17594;Laerm;8916;47.086;15.920;2022-11-15T00:39:20;49.12;48.00;50.40;;
17594;Laerm;8916;47.086;15.920;2022-11-15T00:42:07;49.12;48.03;50.28;;
17594;Laerm;8916;47.086;15.920;2022-11-15T00:44:55;49.13;48.07;50.18;;
17594;Laerm;8916;47.086;15.920;2022-11-15T00:47:43;49.12;48.08;50.28;;
17594;Laerm;8916;47.086;15.920;2022-11-15T00:50:32;49.14;47.98;50.27;;
17594;Laerm;8916;47.086;15.920;2022-11-15T00:53:20;49.12;48.02;50.27;;
17594;Laerm;8916;47.086;15.920;2022-11-15T00:56:08;49.13;47.93;50.38;;
17594;Laerm;8916;47.086;15.920;2022-11-15T00:58:55;49.12;47.86;50.36;;
17594;Laerm;8916;47.086;15.920;2022-11-15T01:01:42;49.12;48.07;50.30;;
17594;Laerm;8916;47.086;15.920;2022-11-15T01:04:30;49.13;47.98;50.55;;
17594;Laerm;8916;47.086;15.920;2022-11-15T01:07:18;49.13;47.77;50.34;;
17594;Laerm;8916;47.086;15.920;2022-11-15T01:10:07;49.13;47.96;50.39;;
17594;Laerm;8916;47.086;15.920;2022-11-15T01:12:54;49.13;47.98;50.14;;
17594;Laerm;8916;47.086;15.920;2022-11-15T01:15:42;49.13;48.10;50.22;;
17594;Laerm;8916;47.086;15.920;2022-11-15T01:18:30;49.12;48.03;50.16;;
17594;Laerm;8916;47.086;15.920;2022-11-15T01:21:18;49.12;48.07;50.17;;
17594;Laerm;8916;47.086;15.920;2022-11-15T01:24:09;49.12;48.08;50.29;;
17594;Laerm;8916;47.086;15.920;2022-11-15T01:26:58;49.12;48.03;50.16;;
17594;Laerm;8916;47.086;15.920;2022-11-15T01:29:46;49.12;48.07;50.24;;
17594;Laerm;8916;47.086;15.920;2022-11-15T01:32:34;49.13;48.00;50.20;;
17594;Laerm;8916;47.086;15.920;2022-11-15T01:35:21;49.13;48.02;50.37;;
17594;Laerm;8916;47.086;15.920;2022-11-15T01:38:09;49.13;47.91;50.39;;
17594;Laerm;8916;47.086;15.920;2022-11-15T01:40:57;49.13;48.00;50.30;;
17594;Laerm;8916;47.086;15.920;2022-11-15T01:43:46;49.13;47.96;50.36;;
17594;Laerm;8916;47.086;15.920;2022-11-15T01:46:34;49.12;48.00;50.53;;
17594;Laerm;8916;47.086;15.920;2022-11-15T01:49:22;49.13;47.91;50.32;;
17594;Laerm;8916;47.086;15.920;2022-11-15T01:52:12;49.13;47.93;50.20;;
17594;Laerm;8916;47.086;15.920;2022-11-15T01:55:03;49.13;48.13;50.39;;
17594;Laerm;8916;47.086;15.920;2022-11-15T01:57:56;49.13;47.91;50.21;;
17594;Laerm;8916;47.086;15.920;2022-11-15T02:00:45;49.12;47.98;50.25;;
17594;Laerm;8916;47.086;15.920;2022-11-15T02:03:36;49.13;48.05;50.18;;
17594;Laerm;8916;47.086;15.920;2022-11-15T02:06:25;49.13;48.10;50.27;;
17594;Laerm;8916;47.086;15.920;2022-11-15T02:09:12;49.12;48.02;50.25;;
17594;Laerm;8916;47.086;15.920;2022-11-15T02:12:00;49.12;48.15;50.41;;
17594;Laerm;8916;47.086;15.920;2022-11-15T02:14:51;49.12;48.13;50.16;;
17594;Laerm;8916;47.086;15.920;2022-11-15T02:17:50;49.12;47.77;50.19;;
17594;Laerm;8916;47.086;15.920;2022-11-15T02:20:52;49.12;48.07;50.36;;
17594;Laerm;8916;47.086;15.920;2022-11-15T02:27:53;49.12;48.00;50.32;;
17594;Laerm;8916;47.086;15.920;2022-11-15T02:30:49;49.13;47.98;50.30;;
17594;Laerm;8916;47.086;15.920;2022-11-15T02:33:42;49.13;47.95;50.33;;
17594;Laerm;8916;47.086;15.920;2022-11-15T02:36:40;49.12;47.98;50.22;;
17594;Laerm;8916;47.086;15.920;2022-11-15T02:39:32;49.12;47.77;50.24;;
17594;Laerm;8916;47.086;15.920;2022-11-15T02:42:24;49.12;48.12;50.20;;
17594;Laerm;8916;47.086;15.920;2022-11-15T02:45:31;49.13;47.83;50.49;;
17594;Laerm;8916;47.086;15.920;2022-11-15T02:48:22;49.14;48.03;50.23;;
17594;Laerm;8916;47.086;15.920;2022-11-15T02:51:10;49.13;47.90;50.30;;
17594;Laerm;8916;47.086;15.920;2022-11-15T02:53:59;49.14;48.03;50.27;;
17594;Laerm;8916;47.086;15.920;2022-11-15T02:56:46;49.13;48.15;50.34;;
17594;Laerm;8916;47.086;15.920;2022-11-15T02:59:47;49.14;48.02;50.14;;
17594;Laerm;8916;47.086;15.920;2022-11-15T03:03:00;49.14;47.98;50.19;;
17594;Laerm;8916;47.086;15.920;2022-11-15T03:05:57;49.13;48.03;50.26;;
17594;Laerm;8916;47.086;15.920;2022-11-15T03:08:54;49.14;48.05;50.23;;
17594;Laerm;8916;47.086;15.920;2022-11-15T03:11:46;49.12;48.03;50.19;;
17594;Laerm;8916;47.086;15.920;2022-11-15T03:14:36;49.13;48.07;50.33;;
17594;Laerm;8916;47.086;15.920;2022-11-15T03:17:28;49.14;48.00;50.25;;
17594;Laerm;8916;47.086;15.920;2022-11-15T03:20:17;49.13;47.95;50.37;;
17594;Laerm;8916;47.086;15.920;2022-11-15T03:23:07;49.15;47.86;50.48;;
17594;Laerm;8916;47.086;15.920;2022-11-15T03:25:55;49.13;48.07;50.37;;
17594;Laerm;8916;47.086;15.920;2022-11-15T03:28:45;49.14;48.12;50.43;;
17594;Laerm;8916;47.086;15.920;2022-11-15T03:31:38;49.13;47.93;50.43;;
17594;Laerm;8916;47.086;15.920;2022-11-15T03:34:37;49.13;48.03;50.17;;
17594;Laerm;8916;47.086;15.920;2022-11-15T03:37:29;49.13;47.93;50.44;;
17594;Laerm;8916;47.086;15.920;2022-11-15T03:40:23;49.13;47.90;50.31;;
17594;Laerm;8916;47.086;15.920;2022-11-15T03:43:16;49.14;47.95;50.22;;
17594;Laerm;8916;47.086;15.920;2022-11-15T03:46:10;49.14;48.08;50.46;;
17594;Laerm;8916;47.086;15.920;2022-11-15T03:49:02;49.14;47.96;50.29;;
17594;Laerm;8916;47.086;15.920;2022-11-15T03:51:51;49.14;48.05;50.17;;
17594;Laerm;8916;47.086;15.920;2022-11-15T03:54:47;49.13;47.84;50.25;;
17594;Laerm;8916;47.086;15.920;2022-11-15T03:57:36;49.14;48.02;50.29;;
17594;Laerm;8916;47.086;15.920;2022-11-15T04:00:23;49.14;48.02;50.21;;
17594;Laerm;8916;47.086;15.920;2022-11-15T04:03:10;49.14;48.03;50.32;;
17594;Laerm;8916;47.086;15.920;2022-11-15T04:05:57;49.13;48.05;50.32;;
17594;Laerm;8916;47.086;15.920;2022-11-15T04:08:44;49.13;48.02;50.23;;
17594;Laerm;8916;47.086;15.920;2022-11-15T04:11:31;49.14;48.03;50.21;;
17594;Laerm;8916;47.086;15.920;2022-11-15T04:14:20;49.13;47.86;50.36;;
17594;Laerm;8916;47.086;15.920;2022-11-15T04:17:08;49.14;48.02;50.26;;
17594;Laerm;8916;47.086;15.920;2022-11-15T04:19:55;49.13;48.12;50.33;;
17594;Laerm;8916;47.086;15.920;2022-11-15T04:23:01;49.13;47.98;50.09;;
17594;Laerm;8916;47.086;15.920;2022-11-15T04:26:06;49.14;48.02;50.26;;
17594;Laerm;8916;47.086;15.920;2022-11-15T04:28:55;49.14;48.03;50.26;;
17594;Laerm;8916;47.086;15.920;2022-11-15T04:32:02;49.14;47.95;50.22;;
17594;Laerm;8916;47.086;15.920;2022-11-15T04:34:49;49.14;48.15;50.42;;
17594;Laerm;8916;47.086;15.920;2022-11-15T04:37:37;49.15;48.12;50.22;;
17594;Laerm;8916;47.086;15.920;2022-11-15T04:40:28;49.15;48.10;50.19;;
17594;Laerm;8916;47.086;15.920;2022-11-15T04:43:16;49.15;48.10;50.31;;
17594;Laerm;8916;47.086;15.920;2022-11-15T04:46:03;49.14;48.08;50.26;;
17594;Laerm;8916;47.086;15.920;2022-11-15T04:48:52;49.15;47.98;50.37;;
17594;Laerm;8916;47.086;15.920;2022-11-15T04:51:44;49.14;47.79;50.56;;
17594;Laerm;8916;47.086;15.920;2022-11-15T04:54:31;49.14;47.96;50.39;;
17594;Laerm;8916;47.086;15.920;2022-11-15T04:57:18;49.14;48.02;50.24;;
17594;Laerm;8916;47.086;15.920;2022-11-15T05:00:11;49.13;48.03;50.37;;
17594;Laerm;8916;47.086;15.920;2022-11-15T05:02:59;49.14;47.98;50.20;;
17594;Laerm;8916;47.086;15.920;2022-11-15T05:06:05;49.13;47.83;50.41;;
17594;Laerm;8916;47.086;15.920;2022-11-15T05:08:52;49.15;48.08;50.31;;
17594;Laerm;8916;47.086;15.920;2022-11-15T05:11:40;49.14;48.12;50.47;;
17594;Laerm;8916;47.086;15.920;2022-11-15T05:14:27;49.14;48.07;50.25;;
17594;Laerm;8916;47.086;15.920;2022-11-15T05:17:15;49.14;47.98;50.31;;
17594;Laerm;8916;47.086;15.920;2022-11-15T05:20:02;49.15;48.05;50.28;;
17594;Laerm;8916;47.086;15.920;2022-11-15T05:22:52;49.14;48.07;50.24;;
17594;Laerm;8916;47.086;15.920;2022-11-15T05:25:40;49.14;48.07;50.31;;
17594;Laerm;8916;47.086;15.920;2022-11-15T05:28:27;49.14;47.87;50.46;;
17594;Laerm;8916;47.086;15.920;2022-11-15T05:31:15;49.15;48.18;50.17;;
17594;Laerm;8916;47.086;15.920;2022-11-15T05:34:02;49.15;48.10;50.24;;
17594;Laerm;8916;47.086;15.920;2022-11-15T05:36:51;49.14;48.12;50.43;;
17594;Laerm;8916;47.086;15.920;2022-11-15T05:39:40;49.15;47.95;50.28;;
17594;Laerm;8916;47.086;15.920;2022-11-15T05:42:27;49.14;48.03;50.22;;
17594;Laerm;8916;47.086;15.920;2022-11-15T05:45:15;49.14;48.02;50.39;;
17594;Laerm;8916;47.086;15.920;2022-11-15T05:48:11;49.14;48.07;50.29;;
17594;Laerm;8916;47.086;15.920;2022-11-15T05:50:59;49.15;48.08;50.12;;
17594;Laerm;8916;47.086;15.920;2022-11-15T05:53:47;49.14;47.98;50.24;;
17594;Laerm;8916;47.086;15.920;2022-11-15T05:56:36;49.14;47.79;50.32;;
17594;Laerm;8916;47.086;15.920;2022-11-15T05:59:23;49.14;48.03;50.35;;
17594;Laerm;8916;47.086;15.920;2022-11-15T06:02:11;49.15;48.02;50.21;;
17594;Laerm;8916;47.086;15.920;2022-11-15T06:04:59;49.15;47.88;50.23;;
17594;Laerm;8916;47.086;15.920;2022-11-15T06:07:46;49.14;48.03;50.23;;
17594;Laerm;8916;47.086;15.920;2022-11-15T06:10:33;49.15;47.95;50.25;;
17594;Laerm;8916;47.086;15.920;2022-11-15T06:13:22;49.15;48.12;50.28;;
17594;Laerm;8916;47.086;15.920;2022-11-15T06:16:09;49.16;47.98;50.40;;
17594;Laerm;8916;47.086;15.920;2022-11-15T06:18:56;49.15;47.93;50.21;;
17594;Laerm;8916;47.086;15.920;2022-11-15T06:21:44;49.14;47.90;50.24;;
17594;Laerm;8916;47.086;15.920;2022-11-15T06:24:31;49.14;48.00;50.28;;
17594;Laerm;8916;47.086;15.920;2022-11-15T06:27:18;49.15;48.15;50.29;;
17594;Laerm;8916;47.086;15.920;2022-11-15T06:30:07;49.15;48.13;50.55;;
17594;Laerm;8916;47.086;15.920;2022-11-15T06:32:59;49.15;48.10;50.25;;
17594;Laerm;8916;47.086;15.920;2022-11-15T06:35:47;49.15;47.98;50.30;;
17594;Laerm;8916;47.086;15.920;2022-11-15T06:38:35;49.14;48.07;50.36;;
17594;Laerm;8916;47.086;15.920;2022-11-15T06:41:23;49.14;47.95;50.28;;
17594;Laerm;8916;47.086;15.920;2022-11-15T06:44:10;49.13;48.08;50.19;;
17594;Laerm;8916;47.086;15.920;2022-11-15T06:46:58;49.14;47.90;50.17;;
17594;Laerm;8916;47.086;15.920;2022-11-15T06:49:46;49.14;48.00;50.32;;
17594;Laerm;8916;47.086;15.920;2022-11-15T06:52:33;49.14;47.96;50.50;;
17594;Laerm;8916;47.086;15.920;2022-11-15T06:55:21;49.13;47.96;50.24;;
17594;Laerm;8916;47.086;15.920;2022-11-15T06:58:08;49.14;47.96;50.28;;
17594;Laerm;8916;47.086;15.920;2022-11-15T07:00:59;49.14;48.02;50.20;;
17594;Laerm;8916;47.086;15.920;2022-11-15T07:03:48;49.14;48.00;50.42;;
17594;Laerm;8916;47.086;15.920;2022-11-15T07:07:02;49.14;48.10;50.26;;
17594;Laerm;8916;47.086;15.920;2022-11-15T07:09:53;49.14;48.10;50.35;;
17594;Laerm;8916;47.086;15.920;2022-11-15T07:12:40;49.14;48.05;50.39;;
17594;Laerm;8916;47.086;15.920;2022-11-15T07:15:27;49.14;47.83;50.20;;
17594;Laerm;8916;47.086;15.920;2022-11-15T07:18:14;49.14;48.05;50.65;;
17594;Laerm;8916;47.086;15.920;2022-11-15T07:21:04;49.14;48.15;50.30;;
17594;Laerm;8916;47.086;15.920;2022-11-15T07:23:52;49.14;48.13;50.45;;
17594;Laerm;8916;47.086;15.920;2022-11-15T07:26:39;49.14;48.05;50.26;;
17594;Laerm;8916;47.086;15.920;2022-11-15T07:29:27;49.15;48.10;50.38;;
17594;Laerm;8916;47.086;15.920;2022-11-15T07:32:14;49.14;48.07;50.56;;
17594;Laerm;8916;47.086;15.920;2022-11-15T07:35:01;49.14;48.07;50.31;;
17594;Laerm;8916;47.086;15.920;2022-11-15T07:37:57;49.14;47.79;50.24;;
17594;Laerm;8916;47.086;15.920;2022-11-15T07:40:45;49.14;47.96;50.21;;
17594;Laerm;8916;47.086;15.920;2022-11-15T07:43:33;49.14;47.79;50.22;;
17594;Laerm;8916;47.086;15.920;2022-11-15T07:46:21;49.14;48.12;50.43;;
17594;Laerm;8916;47.086;15.920;2022-11-15T07:49:08;49.13;47.96;50.30;;
17594;Laerm;8916;47.086;15.920;2022-11-15T07:51:56;49.13;48.07;50.36;;
17594;Laerm;8916;47.086;15.920;2022-11-15T07:54:44;49.13;48.00;50.28;;
17594;Laerm;8916;47.086;15.920;2022-11-15T07:57:32;49.13;48.03;50.18;;
17594;Laerm;8916;47.086;15.920;2022-11-15T08:00:19;49.13;48.05;50.38;;
17594;Laerm;8916;47.086;15.920;2022-11-15T08:03:08;49.13;47.98;50.50;;
17594;Laerm;8916;47.086;15.920;2022-11-15T08:05:56;49.13;47.88;50.27;;
17594;Laerm;8916;47.086;15.920;2022-11-15T08:08:43;49.13;48.08;50.41;;
17594;Laerm;8916;47.086;15.920;2022-11-15T08:11:32;49.14;48.07;50.56;;
17594;Laerm;8916;47.086;15.920;2022-11-15T08:14:20;49.13;48.01;50.44;;
17594;Laerm;8916;47.086;15.920;2022-11-15T08:17:08;49.13;47.74;50.16;;
17594;Laerm;8916;47.086;15.920;2022-11-15T08:19:55;49.11;47.90;50.39;;
17594;Laerm;8916;47.086;15.920;2022-11-15T08:22:42;49.11;48.00;50.17;;
17594;Laerm;8916;47.086;15.920;2022-11-15T08:25:31;49.12;47.88;50.10;;
17594;Laerm;8916;47.086;15.920;2022-11-15T08:28:20;49.11;47.98;50.39;;
17594;Laerm;8916;47.086;15.920;2022-11-15T08:31:13;49.12;47.98;50.36;;
17594;Laerm;8916;47.086;15.920;2022-11-15T08:34:00;49.12;48.13;50.16;;
17594;Laerm;8916;47.086;15.920;2022-11-15T08:36:47;49.11;48.08;50.10;;
17594;Laerm;8916;47.086;15.920;2022-11-15T08:39:35;49.11;48.05;50.50;;
17594;Laerm;8916;47.086;15.920;2022-11-15T08:42:22;49.11;48.03;50.26;;
17594;Laerm;8916;47.086;15.920;2022-11-15T08:45:11;49.09;48.00;50.34;;
17594;Laerm;8916;47.086;15.920;2022-11-15T08:48:00;49.10;47.96;50.12;;
17594;Laerm;8916;47.086;15.920;2022-11-15T08:50:47;49.10;47.95;50.25;;
17594;Laerm;8916;47.086;15.920;2022-11-15T08:53:34;49.10;48.02;50.18;;
17594;Laerm;8916;47.086;15.920;2022-11-15T08:56:22;49.10;47.95;50.26;;
17594;Laerm;8916;47.086;15.920;2022-11-15T08:59:09;49.09;47.91;50.38;;
17594;Laerm;8916;47.086;15.920;2022-11-15T09:01:57;49.09;48.02;50.32;;
17594;Laerm;8916;47.086;15.920;2022-11-15T09:04:45;49.09;48.07;50.20;;
17594;Laerm;8916;47.086;15.920;2022-11-15T09:07:32;49.08;47.84;50.25;;
17594;Laerm;8916;47.086;15.920;2022-11-15T09:10:19;49.08;47.98;50.28;;
17594;Laerm;8916;47.086;15.920;2022-11-15T09:13:07;49.09;48.09;50.37;;
17594;Laerm;8916;47.086;15.920;2022-11-15T09:15:57;49.09;48.05;50.11;;
17594;Laerm;8916;47.086;15.920;2022-11-15T09:18:46;49.09;48.07;50.16;;
17594;Laerm;8916;47.086;15.920;2022-11-15T09:21:33;49.08;48.00;50.23;;
17594;Laerm;8916;47.086;15.920;2022-11-15T09:24:20;49.07;47.99;50.30;;
17594;Laerm;8916;47.086;15.920;2022-11-15T09:27:08;49.08;47.76;50.33;;
17594;Laerm;8916;47.086;15.920;2022-11-15T09:29:55;49.08;47.95;50.25;;
17594;Laerm;8916;47.086;15.920;2022-11-15T09:32:42;49.08;48.07;50.36;;
17594;Laerm;8916;47.086;15.920;2022-11-15T09:35:32;49.08;48.03;50.19;;
17594;Laerm;8916;47.086;15.920;2022-11-15T09:38:20;49.08;48.00;50.39;;
17594;Laerm;8916;47.086;15.920;2022-11-15T09:41:33;49.07;47.90;50.38;;
17594;Laerm;8916;47.086;15.920;2022-11-15T09:44:39;49.07;47.93;50.14;;
17594;Laerm;8916;47.086;15.920;2022-11-15T09:47:42;49.07;48.03;50.22;;
17594;Laerm;8916;47.086;15.920;2022-11-15T09:50:33;49.08;48.00;50.23;;
17594;Laerm;8916;47.086;15.920;2022-11-15T09:53:05;49.09;48.05;50.14;;
17594;Laerm;8916;47.086;15.920;2022-11-15T09:55:40;49.07;48.03;50.36;;
17594;Laerm;8916;47.086;15.920;2022-11-15T09:58:18;49.08;47.95;50.43;;
17594;Laerm;8916;47.086;15.920;2022-11-15T10:00:49;49.08;48.05;50.52;;
17594;Laerm;8916;47.086;15.920;2022-11-15T10:03:25;49.07;47.84;50.08;;
17594;Laerm;8916;47.086;15.920;2022-11-15T10:05:59;49.07;47.96;50.26;;
17594;Laerm;8916;47.086;15.920;2022-11-15T10:08:44;49.07;48.12;50.16;;
17594;Laerm;8916;47.086;15.920;2022-11-15T10:11:17;49.07;47.83;50.18;;
17594;Laerm;8916;47.086;15.920;2022-11-15T10:14:10;49.07;47.93;50.14;;
17594;Laerm;8916;47.086;15.920;2022-11-15T10:17:06;49.08;47.81;50.19;;
17594;Laerm;8916;47.086;15.920;2022-11-15T10:19:42;49.07;47.88;50.20;;
17594;Laerm;8916;47.086;15.920;2022-11-15T10:22:21;49.07;47.93;50.47;;
17594;Laerm;8916;47.086;15.920;2022-11-15T10:25:16;49.07;48.05;50.21;;
17594;Laerm;8916;47.086;15.920;2022-11-15T10:27:51;49.06;47.91;50.50;;
17594;Laerm;8916;47.086;15.920;2022-11-15T10:30:21;49.07;47.76;50.17;;
17594;Laerm;8916;47.086;15.920;2022-11-15T10:32:50;49.07;47.83;50.22;;
17594;Laerm;8916;47.086;15.920;2022-11-15T10:35:22;49.06;47.86;50.16;;
17594;Laerm;8916;47.086;15.920;2022-11-15T10:38:01;49.06;48.03;50.66;;
17594;Laerm;8916;47.086;15.920;2022-11-15T10:40:33;49.06;48.00;50.11;;
17594;Laerm;8916;47.086;15.920;2022-11-15T10:43:15;49.06;47.84;50.10;;
17594;Laerm;8916;47.086;15.920;2022-11-15T10:45:44;49.07;47.95;50.17;;
17594;Laerm;8916;47.086;15.920;2022-11-15T10:48:22;49.05;48.05;50.38;;
17594;Laerm;8916;47.086;15.920;2022-11-15T10:50:52;49.04;47.91;50.28;;
17594;Laerm;8916;47.086;15.920;2022-11-15T10:53:29;49.04;47.79;50.49;;
17594;Laerm;8916;47.086;15.920;2022-11-15T10:56:02;49.04;47.96;50.25;;
17594;Laerm;8916;47.086;15.920;2022-11-15T10:58:37;49.04;47.81;50.19;;
17594;Laerm;8916;47.086;15.920;2022-11-15T11:01:15;49.05;47.82;50.46;;
17594;Laerm;8916;47.086;15.920;2022-11-15T11:03:45;49.03;47.86;50.07;;
17594;Laerm;8916;47.086;15.920;2022-11-15T11:06:26;49.03;47.81;50.10;;
17594;Laerm;8916;47.086;15.920;2022-11-15T11:08:58;49.02;48.00;50.01;;
17594;Laerm;8916;47.086;15.920;2022-11-15T11:11:44;49.03;47.96;50.46;;
17594;Laerm;8916;47.086;15.920;2022-11-15T11:14:19;49.03;47.95;50.36;;
17594;Laerm;8916;47.086;15.920;2022-11-15T11:16:50;49.03;47.96;50.10;;
17594;Laerm;8916;47.086;15.920;2022-11-15T11:22:22;49.03;47.83;50.20;;
17594;Laerm;8916;47.086;15.920;2022-11-15T11:25:05;49.03;47.95;50.15;;
17594;Laerm;8916;47.086;15.920;2022-11-15T11:27:43;49.04;47.96;50.19;;
17594;Laerm;8916;47.086;15.920;2022-11-15T11:30:14;49.05;47.90;50.36;;
17594;Laerm;8916;47.086;15.920;2022-11-15T11:33:04;49.03;47.96;50.19;;
17594;Laerm;8916;47.086;15.920;2022-11-15T11:35:40;49.03;47.96;50.39;;
17594;Laerm;8916;47.086;15.920;2022-11-15T11:38:20;49.04;48.00;50.21;;
17594;Laerm;8916;47.086;15.920;2022-11-15T11:40:59;49.03;47.96;50.28;;
17594;Laerm;8916;47.086;15.920;2022-11-15T11:43:35;49.03;47.88;50.46;;
17594;Laerm;8916;47.086;15.920;2022-11-15T11:46:28;49.03;47.81;50.38;;
17594;Laerm;8916;47.086;15.920;2022-11-15T11:49:06;49.02;47.96;50.09;;
17594;Laerm;8916;47.086;15.920;2022-11-15T11:51:39;49.03;47.96;50.42;;
17594;Laerm;8916;47.086;15.920;2022-11-15T11:54:12;49.03;47.93;50.28;;
17594;Laerm;8916;47.086;15.920;2022-11-15T11:56:44;49.03;47.90;50.11;;
17594;Laerm;8916;47.086;15.920;2022-11-15T11:59:18;49.04;47.86;50.12;;
17594;Laerm;8916;47.086;15.920;2022-11-15T12:01:48;49.03;47.74;50.57;;
17594;Laerm;8916;47.086;15.920;2022-11-15T12:04:19;49.04;47.93;50.03;;
17594;Laerm;8916;47.086;15.920;2022-11-15T12:06:51;49.03;48.03;50.26;;
17594;Laerm;8916;47.086;15.920;2022-11-15T12:09:26;49.04;47.81;50.19;;
17594;Laerm;8916;47.086;15.920;2022-11-15T12:12:02;49.05;47.95;50.26;;
17594;Laerm;8916;47.086;15.920;2022-11-15T12:14:38;49.04;47.84;50.15;;
17594;Laerm;8916;47.086;15.920;2022-11-15T12:17:09;49.05;48.02;50.23;;
17594;Laerm;8916;47.086;15.920;2022-11-15T12:19:38;49.04;47.95;50.28;;
17594;Laerm;8916;47.086;15.920;2022-11-15T12:22:12;49.05;47.96;50.17;;
17594;Laerm;8916;47.086;15.920;2022-11-15T12:24:46;49.04;47.93;50.19;;
17594;Laerm;8916;47.086;15.920;2022-11-15T12:27:25;49.04;48.00;50.20;;
17594;Laerm;8916;47.086;15.920;2022-11-15T12:30:02;49.04;48.00;50.25;;
17594;Laerm;8916;47.086;15.920;2022-11-15T12:32:33;49.03;47.95;50.35;;
17594;Laerm;8916;47.086;15.920;2022-11-15T12:35:04;49.05;48.00;50.18;;
17594;Laerm;8916;47.086;15.920;2022-11-15T12:37:52;49.05;47.95;50.14;;
17594;Laerm;8916;47.086;15.920;2022-11-15T12:40:28;49.04;47.83;50.21;;
17594;Laerm;8916;47.086;15.920;2022-11-15T12:45:47;49.05;47.79;50.43;;
17594;Laerm;8916;47.086;15.920;2022-11-15T12:48:48;49.05;47.93;50.54;;
17594;Laerm;8916;47.086;15.920;2022-11-15T12:51:20;49.06;47.86;50.30;;
17594;Laerm;8916;47.086;15.920;2022-11-15T12:53:49;49.06;48.00;50.35;;
17594;Laerm;8916;47.086;15.920;2022-11-15T12:56:22;49.04;47.84;50.17;;
17594;Laerm;8916;47.086;15.920;2022-11-15T12:58:54;49.05;48.00;50.29;;
17594;Laerm;8916;47.086;15.920;2022-11-15T13:01:54;49.05;48.03;50.08;;
17594;Laerm;8916;47.086;15.920;2022-11-15T13:04:26;49.05;47.91;50.51;;
17594;Laerm;8916;47.086;15.920;2022-11-15T13:06:57;49.06;47.93;50.12;;
17594;Laerm;8916;47.086;15.920;2022-11-15T13:09:53;49.07;48.02;50.19;;
17594;Laerm;8916;47.086;15.920;2022-11-15T13:12:57;49.06;47.93;50.12;;
17594;Laerm;8916;47.086;15.920;2022-11-15T13:15:54;49.07;47.86;50.32;;
17594;Laerm;8916;47.086;15.920;2022-11-15T13:18:38;49.07;48.08;50.31;;
17594;Laerm;8916;47.086;15.920;2022-11-15T13:21:22;49.06;48.00;50.23;;
17594;Laerm;8916;47.086;15.920;2022-11-15T13:24:12;49.07;47.79;50.19;;
17594;Laerm;8916;47.086;15.920;2022-11-15T13:26:42;49.07;48.03;50.22;;
17594;Laerm;8916;47.086;15.920;2022-11-15T13:29:17;49.06;47.68;50.56;;
17594;Laerm;8916;47.086;15.920;2022-11-15T13:31:48;49.08;47.90;50.49;;
17594;Laerm;8916;47.086;15.920;2022-11-15T13:34:28;49.07;47.98;50.27;;
17594;Laerm;8916;47.086;15.920;2022-11-15T13:37:28;49.07;47.93;50.33;;
17594;Laerm;8916;47.086;15.920;2022-11-15T13:40:22;49.08;47.88;50.17;;
17594;Laerm;8916;47.086;15.920;2022-11-15T13:42:51;49.08;48.02;50.27;;
17594;Laerm;8916;47.086;15.920;2022-11-15T13:45:20;49.08;48.05;50.20;;
17594;Laerm;8916;47.086;15.920;2022-11-15T13:47:56;49.08;47.91;50.22;;
17594;Laerm;8916;47.086;15.920;2022-11-15T13:50:27;49.08;47.98;50.13;;
17594;Laerm;8916;47.086;15.920;2022-11-15T13:52:57;49.07;47.93;50.14;;
17594;Laerm;8916;47.086;15.920;2022-11-15T13:55:27;49.07;47.96;50.20;;
17594;Laerm;8916;47.086;15.920;2022-11-15T13:57:57;49.07;48.02;50.19;;
17594;Laerm;8916;47.086;15.920;2022-11-15T14:00:36;49.08;47.95;50.42;;
17594;Laerm;8916;47.086;15.920;2022-11-15T14:03:19;49.07;48.13;50.37;;
17594;Laerm;8916;47.086;15.920;2022-11-15T14:06:04;49.07;47.98;50.58;;
17594;Laerm;8916;47.086;15.920;2022-11-15T14:08:35;49.08;47.90;50.26;;
17594;Laerm;8916;47.086;15.920;2022-11-15T14:11:09;49.07;48.00;50.18;;
17594;Laerm;8916;47.086;15.920;2022-11-15T14:13:41;49.07;47.96;50.20;;
17594;Laerm;8916;47.086;15.920;2022-11-15T14:16:15;49.07;47.95;50.19;;
17594;Laerm;8916;47.086;15.920;2022-11-15T14:18:47;49.08;48.00;50.12;;
17594;Laerm;8916;47.086;15.920;2022-11-15T14:21:19;49.08;47.98;50.13;;
17594;Laerm;8916;47.086;15.920;2022-11-15T14:23:48;49.07;48.10;50.31;;
17594;Laerm;8916;47.086;15.920;2022-11-15T14:26:29;49.08;47.86;50.11;;
17594;Laerm;8916;47.086;15.920;2022-11-15T14:29:24;49.08;47.90;50.21;;
17594;Laerm;8916;47.086;15.920;2022-11-15T14:31:53;49.08;47.83;50.28;;
17594;Laerm;8916;47.086;15.920;2022-11-15T14:34:23;49.09;48.08;50.45;;
17594;Laerm;8916;47.086;15.920;2022-11-15T14:36:52;49.08;48.05;50.23;;
17594;Laerm;8916;47.086;15.920;2022-11-15T14:39:21;49.08;47.84;50.18;;
17594;Laerm;8916;47.086;15.920;2022-11-15T14:41:51;49.09;47.98;50.26;;
17594;Laerm;8916;47.086;15.920;2022-11-15T14:44:20;49.09;47.93;50.24;;
17594;Laerm;8916;47.086;15.920;2022-11-15T14:46:49;49.09;48.00;50.23;;
17594;Laerm;8916;47.086;15.920;2022-11-15T14:49:18;49.08;48.07;50.16;;
17594;Laerm;8916;47.086;15.920;2022-11-15T14:51:48;49.08;48.03;50.21;;
17594;Laerm;8916;47.086;15.920;2022-11-15T14:54:17;49.09;47.95;50.16;;
17594;Laerm;8916;47.086;15.920;2022-11-15T14:56:45;49.08;48.02;50.09;;
17594;Laerm;8916;47.086;15.920;2022-11-15T14:59:14;49.09;48.00;50.22;;
17594;Laerm;8916;47.086;15.920;2022-11-15T15:01:43;49.08;47.93;50.19;;
17594;Laerm;8916;47.086;15.920;2022-11-15T15:04:12;49.09;47.81;50.21;;
17594;Laerm;8916;47.086;15.920;2022-11-15T15:06:41;49.09;47.96;50.44;;
17594;Laerm;8916;47.086;15.920;2022-11-15T15:09:11;49.08;47.98;50.10;;
17594;Laerm;8916;47.086;15.920;2022-11-15T15:11:40;49.08;47.72;50.16;;
17594;Laerm;8916;47.086;15.920;2022-11-15T15:14:09;49.08;47.98;50.38;;
17594;Laerm;8916;47.086;15.920;2022-11-15T15:16:37;49.10;47.93;50.16;;
17594;Laerm;8916;47.086;15.920;2022-11-15T15:19:06;49.09;47.93;50.28;;
17594;Laerm;8916;47.086;15.920;2022-11-15T15:21:35;49.08;47.88;50.38;;
17594;Laerm;8916;47.086;15.920;2022-11-15T15:24:04;49.09;47.81;50.24;;
17594;Laerm;8916;47.086;15.920;2022-11-15T15:26:34;49.09;47.95;50.45;;
17594;Laerm;8916;47.086;15.920;2022-11-15T15:29:04;49.09;47.93;50.18;;
17594;Laerm;8916;47.086;15.920;2022-11-15T15:31:33;49.08;48.02;50.13;;